Time;durP1;ratioP1;P1;durP2;ratioP2;P2;SDS_P1;SDS_P2;PMS_P1;PMS_P2;Temp;Humidity;BMP_temperature;BMP_pressure;BME280_temperature;BME280_humidity;BME280_pressure;Samples;Min_cycle;Max_cycle;Signal;HPM_P1;HPM_P2
2024/03/11 00:02:24;;;;;;;2.75;1.80;;;;;;;5.15;100.00;99012.28;4984109;28;20083;-77
2024/03/11 00:04:50;;;;;;;3.55;1.90;;;;;;;5.17;100.00;99011.16;4983518;28;20034;-76
2024/03/11 00:07:15;;;;;;;3.33;1.90;;;;;;;5.18;100.00;99010.03;4996663;28;20018;-77
2024/03/11 00:09:44;;;;;;;3.38;1.85;;;;;;;5.17;100.00;99013.91;4996539;28;20022;-77
2024/03/11 00:12:17;;;;;;;3.08;1.88;;;;;;;5.12;100.00;99017.53;4991610;28;20038;-77
2024/03/11 00:14:47;;;;;;;3.50;1.73;;;;;;;5.09;100.00;99013.44;4965073;28;20022;-76
2024/03/11 00:17:12;;;;;;;4.72;1.70;;;;;;;5.06;100.00;99013.22;4996683;28;20114;-77
2024/03/11 00:19:38;;;;;;;3.70;1.98;;;;;;;4.99;100.00;99019.09;4980070;28;20030;-76
2024/03/11 00:22:03;;;;;;;4.15;2.10;;;;;;;4.99;100.00;99023.78;4988402;28;20035;-77
2024/03/11 00:24:29;;;;;;;6.72;3.45;;;;;;;4.91;100.00;99026.06;5019733;28;20035;-77
2024/03/11 00:26:56;;;;;;;8.32;4.13;;;;;;;4.85;100.00;99029.16;4954214;28;20022;-77
2024/03/11 00:29:21;;;;;;;8.68;3.85;;;;;;;4.79;100.00;99030.31;4996906;28;20034;-77
2024/03/11 00:31:47;;;;;;;7.53;3.63;;;;;;;4.82;100.00;99029.72;4973004;28;20564;-77
2024/03/11 00:34:14;;;;;;;6.50;3.40;;;;;;;4.77;100.00;99030.63;4983551;28;20029;-77
2024/03/11 00:36:39;;;;;;;7.75;3.47;;;;;;;4.70;100.00;99033.69;4972727;28;20101;-77
2024/03/11 00:39:05;;;;;;;7.68;3.70;;;;;;;4.67;100.00;99037.03;4963786;28;20023;-77
2024/03/11 00:41:33;;;;;;;7.32;3.58;;;;;;;4.64;100.00;99028.56;4999328;28;20022;-77
2024/03/11 00:43:59;;;;;;;6.70;3.58;;;;;;;4.59;100.00;99029.41;4966212;28;20031;-77
2024/03/11 00:46:25;;;;;;;7.78;3.92;;;;;;;4.57;100.00;99026.16;4983288;28;20448;-77
2024/03/11 00:48:50;;;;;;;9.93;4.05;;;;;;;4.59;100.00;99029.41;4975332;28;20026;-77
2024/03/11 00:51:16;;;;;;;10.23;3.70;;;;;;;4.50;100.00;99028.41;4987890;28;20027;-77
2024/03/11 00:53:41;;;;;;;6.80;3.75;;;;;;;4.54;100.00;99023.16;4966987;28;20183;-77
2024/03/11 00:56:07;;;;;;;6.32;3.78;;;;;;;4.48;100.00;99031.47;4983223;28;20029;-76
2024/03/11 00:58:36;;;;;;;5.10;3.28;;;;;;;4.39;100.00;99029.63;4977976;28;20030;-77
2024/03/11 01:01:03;;;;;;;6.40;3.70;;;;;;;4.39;100.00;99035.13;4967341;28;20079;-77
2024/03/11 01:03:31;;;;;;;6.55;3.80;;;;;;;4.33;100.00;99028.03;4964444;28;20018;-77
2024/03/11 01:05:58;;;;;;;5.57;3.30;;;;;;;4.30;100.00;99034.13;4960918;28;20022;-76
2024/03/11 01:08:24;;;;;;;7.63;3.67;;;;;;;4.25;100.00;99038.53;4964224;28;20022;-77
2024/03/11 01:10:49;;;;;;;5.70;3.25;;;;;;;4.20;100.00;99033.06;4972399;28;20023;-76
2024/03/11 01:13:15;;;;;;;7.07;3.63;;;;;;;4.20;100.00;99040.50;4975312;28;20023;-77
2024/03/11 01:15:40;;;;;;;5.97;2.90;;;;;;;4.16;100.00;99031.22;4972876;28;20042;-77
2024/03/11 01:18:06;;;;;;;6.07;3.33;;;;;;;4.16;100.00;99032.03;4960057;28;20027;-77
2024/03/11 01:20:31;;;;;;;5.40;3.08;;;;;;;4.14;100.00;99031.50;4959772;28;20090;-77
2024/03/11 01:22:57;;;;;;;5.07;2.80;;;;;;;4.11;100.00;99034.81;4976032;28;20031;-77
2024/03/11 01:25:23;;;;;;;4.93;3.13;;;;;;;4.03;100.00;99027.19;4951555;28;20389;-76
2024/03/11 01:27:49;;;;;;;6.32;3.03;;;;;;;3.98;100.00;99033.56;4984288;28;20030;-76
2024/03/11 01:30:14;;;;;;;3.55;2.58;;;;;;;3.96;100.00;99035.75;4982493;28;20041;-76
2024/03/11 01:32:41;;;;;;;6.47;2.90;;;;;;;3.91;100.00;99033.06;5001620;28;20030;-77
2024/03/11 01:35:07;;;;;;;5.00;2.50;;;;;;;3.87;100.00;99031.97;4971656;28;20074;-77
2024/03/11 01:37:33;;;;;;;6.90;3.20;;;;;;;3.84;100.00;99032.53;4975465;28;20064;-77
2024/03/11 01:39:58;;;;;;;3.83;2.50;;;;;;;3.81;100.00;99033.13;4989008;28;20482;-77
2024/03/11 01:42:24;;;;;;;4.80;2.80;;;;;;;3.83;100.00;99041.09;4954992;28;20080;-77
2024/03/11 01:44:50;;;;;;;6.15;2.72;;;;;;;3.77;100.00;99046.59;4967907;28;20033;-77
2024/03/11 01:47:18;;;;;;;5.03;2.70;;;;;;;3.74;100.00;99035.38;4989947;28;20023;-77
2024/03/11 01:49:51;;;;;;;4.20;2.60;;;;;;;3.77;100.00;99041.13;4975537;28;20047;-77
2024/03/11 01:52:18;;;;;;;5.75;2.97;;;;;;;3.71;100.00;99052.44;4962930;28;20029;-76
2024/03/11 01:54:44;;;;;;;6.40;3.17;;;;;;;3.72;100.00;99052.13;4962422;28;20046;-77
2024/03/11 01:57:12;;;;;;;6.22;2.72;;;;;;;3.61;100.00;99050.56;4994381;28;20034;-77
2024/03/11 01:59:37;;;;;;;8.63;3.78;;;;;;;3.63;100.00;99051.09;4962472;28;20449;-77
2024/03/11 02:02:07;;;;;;;7.82;3.40;;;;;;;3.59;100.00;99047.25;4971648;28;20094;-77
2024/03/11 02:04:44;;;;;;;6.30;3.40;;;;;;;3.56;100.00;99048.66;4976472;28;20037;-77
2024/03/11 02:07:09;;;;;;;5.63;3.55;;;;;;;3.55;100.00;99041.53;4975092;28;20034;-76
2024/03/11 02:09:35;;;;;;;6.07;3.63;;;;;;;3.52;100.00;99050.34;4991817;28;20033;-77
2024/03/11 02:12:00;;;;;;;8.05;4.35;;;;;;;3.59;100.00;99058.25;4958139;28;20041;-77
2024/03/11 02:14:26;;;;;;;8.63;5.03;;;;;;;3.60;100.00;99050.84;4961463;28;20027;-77
2024/03/11 02:16:52;;;;;;;7.13;4.15;;;;;;;3.45;100.00;99065.47;4978286;28;20433;-76
2024/03/11 02:19:17;;;;;;;6.50;3.97;;;;;;;3.47;100.00;99066.00;4979298;28;20103;-77
2024/03/11 02:21:47;;;;;;;7.60;3.90;;;;;;;3.49;100.00;99074.78;4971540;28;20080;-77
2024/03/11 02:24:15;;;;;;;8.93;4.07;;;;;;;3.52;100.00;99068.72;4980600;28;20049;-76
2024/03/11 02:26:50;;;;;;;5.80;3.38;;;;;;;3.51;100.00;99076.16;4979159;28;20129;-77
2024/03/11 02:29:16;;;;;;;6.50;3.30;;;;;;;3.54;100.00;99080.25;4976846;28;20041;-77
2024/03/11 02:31:45;;;;;;;5.63;3.78;;;;;;;3.60;100.00;99078.31;4960700;28;20422;-77
2024/03/11 02:34:11;;;;;;;5.38;3.40;;;;;;;3.60;100.00;99079.13;4991088;28;20034;-76
2024/03/11 02:36:39;;;;;;;7.35;3.40;;;;;;;3.64;100.00;99082.94;4962006;28;20034;-76
2024/03/11 02:39:07;;;;;;;7.35;3.67;;;;;;;3.65;100.00;99081.84;4977961;28;20045;-77
2024/03/11 02:41:36;;;;;;;6.93;3.33;;;;;;;3.67;100.00;99087.84;4978767;28;20026;-77
2024/03/11 02:44:04;;;;;;;5.25;3.50;;;;;;;3.70;100.00;99076.28;5007719;28;20029;-77
2024/03/11 02:46:33;;;;;;;6.60;3.15;;;;;;;3.73;100.00;99081.25;4957710;28;20029;-77
2024/03/11 02:48:58;;;;;;;6.43;3.30;;;;;;;3.77;100.00;99082.31;4968838;28;20029;-76
2024/03/11 02:51:24;;;;;;;4.78;3.05;;;;;;;3.80;100.00;99081.72;5001492;28;20034;-77
2024/03/11 02:53:50;;;;;;;6.78;3.08;;;;;;;3.83;100.00;99091.34;4977709;28;20027;-77
2024/03/11 02:56:16;;;;;;;5.82;3.30;;;;;;;3.85;100.00;99089.13;4983083;28;20026;-77
2024/03/11 02:58:42;;;;;;;5.57;3.25;;;;;;;3.88;100.00;99096.81;4983755;28;20105;-76
2024/03/11 03:01:07;;;;;;;5.10;3.13;;;;;;;3.90;100.00;99091.00;4952099;28;20054;-76
2024/03/11 03:03:34;;;;;;;5.80;3.15;;;;;;;3.97;100.00;99097.00;4981035;28;20030;-77
2024/03/11 03:05:59;;;;;;;4.07;2.90;;;;;;;3.98;100.00;99101.38;4994037;28;20023;-77
2024/03/11 03:08:25;;;;;;;4.22;2.95;;;;;;;4.00;100.00;99101.94;4986666;28;20144;-77
2024/03/11 03:10:51;;;;;;;4.90;2.85;;;;;;;4.04;100.00;99114.00;4981309;28;20103;-77
2024/03/11 03:13:17;;;;;;;3.95;2.90;;;;;;;4.00;100.00;99111.00;4983890;28;20030;-77
2024/03/11 03:15:42;;;;;;;5.22;3.08;;;;;;;4.06;100.00;99106.28;4943890;28;20503;-77
2024/03/11 03:18:08;;;;;;;4.63;2.78;;;;;;;4.09;100.00;99111.19;4961252;28;20056;-77
2024/03/11 03:20:33;;;;;;;5.68;3.35;;;;;;;4.09;100.00;99118.63;4993348;28;20042;-77
2024/03/11 03:22:59;;;;;;;4.90;3.00;;;;;;;4.10;100.00;99118.34;4951304;28;20026;-77
2024/03/11 03:25:33;;;;;;;3.67;2.90;;;;;;;4.14;100.00;99124.09;4980300;28;20026;-77
2024/03/11 03:28:02;;;;;;;4.53;2.83;;;;;;;4.18;100.00;99130.66;4948845;28;20042;-77
2024/03/11 03:30:28;;;;;;;4.15;2.72;;;;;;;4.17;100.00;99135.31;4981380;28;20102;-77
2024/03/11 03:32:55;;;;;;;3.35;2.50;;;;;;;4.20;100.00;99128.44;4977535;28;20030;-77
2024/03/11 03:35:20;;;;;;;4.97;2.83;;;;;;;4.20;100.00;99123.75;4966960;28;20065;-77
2024/03/11 03:37:46;;;;;;;4.47;3.05;;;;;;;4.25;100.00;99131.16;4969778;28;20452;-77
2024/03/11 03:40:17;;;;;;;4.40;2.78;;;;;;;4.26;100.00;99130.03;4966342;28;20022;-76
2024/03/11 03:42:43;;;;;;;5.45;2.75;;;;;;;4.29;100.00;99126.75;4966594;28;20080;-77
2024/03/11 03:45:09;;;;;;;5.25;3.13;;;;;;;4.30;100.00;99135.81;5007177;28;20088;-76
2024/03/11 03:47:36;;;;;;;4.10;2.72;;;;;;;4.33;100.00;99137.97;4985456;28;20026;-76
2024/03/11 03:50:02;;;;;;;4.65;2.78;;;;;;;4.34;100.00;99145.09;4965576;28;20126;-77
2024/03/11 03:52:29;;;;;;;4.53;2.83;;;;;;;4.32;100.00;99153.66;4996909;28;20025;-77
2024/03/11 03:54:54;;;;;;;4.38;2.60;;;;;;;4.37;100.00;99150.84;4981056;28;20122;-77
2024/03/11 03:57:21;;;;;;;4.13;2.60;;;;;;;4.36;100.00;99154.72;4964643;28;20030;-77
2024/03/11 03:59:52;;;;;;;7.50;2.55;;;;;;;4.35;100.00;99157.75;4964119;28;20046;-77
2024/03/11 04:02:18;;;;;;;3.47;2.50;;;;;;;4.36;100.00;99153.91;4997016;28;20684;-77
2024/03/11 04:04:44;;;;;;;4.38;2.50;;;;;;;4.40;100.00;99155.81;4964221;28;20026;-77
2024/03/11 04:07:10;;;;;;;4.38;2.30;;;;;;;4.39;100.00;99154.13;4996735;28;20661;-77
2024/03/11 04:09:38;;;;;;;5.05;2.70;;;;;;;4.40;100.00;99157.69;5010224;28;20053;-77
2024/03/11 04:12:04;;;;;;;3.03;2.38;;;;;;;4.43;100.00;99160.72;4976515;28;20030;-77
2024/03/11 04:14:29;;;;;;;4.03;2.47;;;;;;;4.46;100.00;99153.84;4986893;28;20022;-77
2024/03/11 04:16:55;;;;;;;3.25;2.38;;;;;;;4.43;100.00;99157.13;4961577;28;20098;-76
2024/03/11 04:19:20;;;;;;;4.13;2.60;;;;;;;4.43;100.00;99157.13;4975346;28;20045;-77
2024/03/11 04:21:47;;;;;;;5.22;2.53;;;;;;;4.42;100.00;99153.56;4999163;28;20085;-77
2024/03/11 04:24:14;;;;;;;4.07;2.67;;;;;;;4.46;100.00;99156.59;4981891;28;20026;-77
2024/03/11 04:26:39;;;;;;;3.33;2.20;;;;;;;4.41;100.00;99157.44;4956086;28;20030;-77
2024/03/11 04:29:05;;;;;;;3.30;2.40;;;;;;;4.38;100.00;99151.69;4966034;28;20037;-77
2024/03/11 04:31:33;;;;;;;3.55;2.40;;;;;;;4.37;100.00;99163.78;4991514;28;20030;-77
2024/03/11 04:33:58;;;;;;;4.75;2.70;;;;;;;4.35;100.00;99174.25;4981752;28;20041;-77
2024/03/11 04:36:24;;;;;;;4.15;2.70;;;;;;;4.32;100.00;99181.16;4999687;28;20034;-76
2024/03/11 04:38:49;;;;;;;4.55;2.90;;;;;;;4.30;100.00;99182.53;4954656;28;20045;-76
2024/03/11 04:41:15;;;;;;;4.05;2.67;;;;;;;4.29;100.00;99189.13;4983091;28;20033;-77
2024/03/11 04:43:41;;;;;;;4.90;2.75;;;;;;;4.26;100.00;99179.50;4982704;28;20506;-77
2024/03/11 04:46:09;;;;;;;3.25;2.55;;;;;;;4.21;100.00;99185.88;4972222;28;20382;-77
2024/03/11 04:48:35;;;;;;;5.60;3.05;;;;;;;4.16;100.00;99194.16;4970687;28;20042;-76
2024/03/11 04:51:04;;;;;;;4.72;2.97;;;;;;;4.13;100.00;99202.97;4957832;28;20118;-77
2024/03/11 04:53:30;;;;;;;4.80;2.80;;;;;;;4.10;100.00;99197.22;4982673;28;20042;-77
2024/03/11 04:55:55;;;;;;;5.97;3.30;;;;;;;4.07;100.00;99217.00;4979576;28;20062;-76
2024/03/11 04:58:21;;;;;;;5.13;3.22;;;;;;;4.02;100.00;99217.88;4966583;28;20113;-77
2024/03/11 05:00:47;;;;;;;5.13;3.53;;;;;;;3.96;100.00;99222.56;4977293;28;20116;-77
2024/03/11 05:03:13;;;;;;;5.93;3.60;;;;;;;3.93;100.00;99230.56;4985766;28;20751;-77
2024/03/11 05:05:40;;;;;;;6.38;3.60;;;;;;;3.91;100.00;99235.50;4989462;28;20552;-77
2024/03/11 05:08:06;;;;;;;5.38;3.50;;;;;;;3.87;100.00;99240.72;4951985;28;20026;-77
2024/03/11 05:10:32;;;;;;;5.82;3.65;;;;;;;3.85;100.00;99247.63;4974025;28;20084;-77
2024/03/11 05:12:58;;;;;;;5.90;3.72;;;;;;;3.80;100.00;99246.50;4980972;28;20057;-77
2024/03/11 05:15:26;;;;;;;5.75;3.53;;;;;;;3.78;100.00;99245.16;4975757;28;20026;-77
2024/03/11 05:17:52;;;;;;;5.72;3.72;;;;;;;3.75;100.00;99260.25;4967055;28;20670;-77
2024/03/11 05:20:18;;;;;;;5.38;3.80;;;;;;;3.70;100.00;99264.94;4995398;28;20034;-77
2024/03/11 05:22:44;;;;;;;6.30;3.53;;;;;;;3.70;100.00;99271.25;4983992;28;20034;-77
2024/03/11 05:25:17;;;;;;;6.72;3.58;;;;;;;3.63;100.00;99276.22;4973589;28;20114;-76
2024/03/11 05:27:50;;;;;;;;;;;;;;;3.61;100.00;99270.19;5000021;28;20022;-77
2024/03/11 05:30:17;;;;;;;6.03;4.07;;;;;;;3.58;100.00;99270.75;4998212;28;20380;-77
2024/03/11 05:32:43;;;;;;;6.57;4.30;;;;;;;3.58;100.00;99281.72;4964787;28;20030;-77
2024/03/11 05:35:08;;;;;;;8.75;4.05;;;;;;;3.56;100.00;99278.44;4980839;28;20073;-76
2024/03/11 05:37:34;;;;;;;6.57;3.92;;;;;;;3.61;100.00;99292.16;4986604;28;20037;-77
2024/03/11 05:39:59;;;;;;;8.00;4.30;;;;;;;3.53;100.00;99287.22;5003334;28;20038;-77
2024/03/11 05:42:25;;;;;;;11.13;4.70;;;;;;;3.51;100.00;99303.13;4972457;28;20026;-77
2024/03/11 05:44:51;;;;;;;10.98;4.63;;;;;;;3.53;100.00;99289.97;4979299;28;20034;-77
2024/03/11 05:47:16;;;;;;;7.25;4.43;;;;;;;3.50;100.00;99304.25;4952587;28;20038;-77
2024/03/11 05:49:42;;;;;;;6.45;4.20;;;;;;;3.47;100.00;99308.38;4973921;28;20033;-77
2024/03/11 05:52:09;;;;;;;7.47;4.53;;;;;;;3.45;100.00;99317.97;4982249;28;20041;-77
2024/03/11 05:54:38;;;;;;;6.65;4.10;;;;;;;3.43;100.00;99309.22;4986323;28;20037;-77
2024/03/11 05:57:06;;;;;;;7.47;4.68;;;;;;;3.41;100.00;99322.38;4967740;28;20129;-77
2024/03/11 05:59:31;;;;;;;7.80;3.92;;;;;;;3.37;100.00;99316.59;4952997;28;20056;-76
2024/03/11 06:01:59;;;;;;;5.53;3.67;;;;;;;3.35;100.00;99327.88;4959692;28;20026;-77
2024/03/11 06:04:25;;;;;;;7.18;4.15;;;;;;;3.32;100.00;99335.84;4975815;28;20041;-77
2024/03/11 06:06:51;;;;;;;7.55;3.97;;;;;;;3.26;100.00;99332.28;4994994;28;20026;-77
2024/03/11 06:09:16;;;;;;;6.13;4.15;;;;;;;3.23;100.00;99343.81;4981674;28;20033;-77
2024/03/11 06:11:42;;;;;;;7.50;4.03;;;;;;;3.20;100.00;99335.28;4968692;28;20033;-76
2024/03/11 06:14:12;;;;;;;9.07;4.40;;;;;;;3.18;100.00;99349.28;4981911;28;20035;-76
2024/03/11 06:16:46;;;;;;;6.18;3.75;;;;;;;3.17;100.00;99353.09;4988886;28;20050;-77
2024/03/11 06:19:14;;;;;;;6.90;3.72;;;;;;;3.11;100.00;99352.28;4971943;28;20033;-77
2024/03/11 06:21:42;;;;;;;8.85;4.47;;;;;;;3.10;100.00;99364.38;4957823;28;20240;-77
2024/03/11 06:24:11;;;;;;;7.93;4.70;;;;;;;3.08;100.00;99361.06;4959458;28;20069;-77
2024/03/11 06:26:37;;;;;;;10.23;5.28;;;;;;;3.09;100.00;99361.88;4963037;28;20393;-76
2024/03/11 06:29:03;;;;;;;8.55;4.97;;;;;;;3.08;100.00;99371.22;4991206;28;20398;-77
2024/03/11 06:31:33;;;;;;;11.52;5.63;;;;;;;3.13;100.00;99365.75;4994316;28;20038;-77
2024/03/11 06:33:59;;;;;;;12.07;6.03;;;;;;;3.05;100.00;99371.75;4977024;28;20420;-77
2024/03/11 06:36:25;;;;;;;12.63;5.78;;;;;;;3.02;100.00;99377.78;4994230;28;20034;-77
2024/03/11 06:38:53;;;;;;;11.05;5.70;;;;;;;3.02;100.00;99384.09;4994026;28;20038;-77
2024/03/11 06:41:19;;;;;;;12.05;5.32;;;;;;;3.02;100.00;99391.50;4995065;28;20061;-77
2024/03/11 06:43:45;;;;;;;11.48;5.82;;;;;;;3.02;100.00;99400.56;4961182;28;20054;-76
2024/03/11 06:46:14;;;;;;;16.88;7.93;;;;;;;3.00;100.00;99400.00;4970542;28;20036;-76
2024/03/11 06:48:43;;;;;;;17.73;7.53;;;;;;;2.99;100.00;99403.03;4986042;28;20154;-76
2024/03/11 06:51:09;;;;;;;17.85;7.85;;;;;;;2.96;100.00;99396.16;4993761;28;20026;-77
2024/03/11 06:53:34;;;;;;;15.55;6.75;;;;;;;3.00;100.00;99402.75;4977582;28;20081;-76
2024/03/11 06:56:00;;;;;;;12.65;6.35;;;;;;;2.97;100.00;99414.25;4993859;28;20556;-77
2024/03/11 06:58:27;;;;;;;14.23;6.18;;;;;;;2.96;100.00;99415.38;4994037;28;20101;-76
2024/03/11 07:00:52;;;;;;;15.02;6.07;;;;;;;2.93;100.00;99417.81;5009820;28;20052;-77
2024/03/11 07:03:18;;;;;;;13.30;6.13;;;;;;;2.92;100.00;99425.22;4981032;28;20046;-77
2024/03/11 07:05:44;;;;;;;13.00;6.38;;;;;;;2.97;100.00;99429.91;4988362;28;20018;-76
2024/03/11 07:08:09;;;;;;;22.73;7.78;;;;;;;3.01;100.00;99431.00;5001411;28;20030;-76
2024/03/11 07:10:35;;;;;;;21.17;7.85;;;;;;;3.04;100.00;99428.56;5008731;28;20030;-76
2024/03/11 07:13:04;;;;;;;20.85;7.70;;;;;;;3.13;100.00;99434.31;4983588;28;20122;-76
2024/03/11 07:15:29;;;;;;;18.48;7.97;;;;;;;3.19;100.00;99437.91;4969254;28;20038;-76
2024/03/11 07:17:55;;;;;;;22.63;7.63;;;;;;;3.27;100.00;99435.44;4965340;28;20034;-77
2024/03/11 07:20:23;;;;;;;16.60;6.70;;;;;;;3.39;100.00;99437.09;4981537;28;20030;-75
2024/03/11 07:22:50;;;;;;;22.05;7.50;;;;;;;3.50;100.00;99444.25;4965463;28;20039;-76
2024/03/11 07:25:17;;;;;;;16.10;6.75;;;;;;;3.64;100.00;99439.03;5013353;28;20085;-76
2024/03/11 07:27:47;;;;;;;17.50;7.45;;;;;;;3.78;100.00;99446.44;4981086;28;20062;-77
2024/03/11 07:30:13;;;;;;;14.27;5.97;;;;;;;3.92;100.00;99440.41;4965465;28;20036;-77
2024/03/11 07:32:38;;;;;;;11.68;6.20;;;;;;;4.08;100.00;99444.78;4981122;28;20026;-77
2024/03/11 07:35:04;;;;;;;11.95;5.95;;;;;;;4.24;100.00;99460.16;4970527;28;20072;-76
2024/03/11 07:37:36;;;;;;;11.93;5.88;;;;;;;4.39;100.00;99453.78;4982729;28;20512;-76
2024/03/11 07:40:11;;;;;;;16.17;5.82;;;;;;;4.58;100.00;99470.50;4974808;28;20030;-76
2024/03/11 07:42:37;;;;;;;11.65;5.40;;;;;;;4.78;100.00;99466.03;4987377;28;20028;-76
2024/03/11 07:45:04;;;;;;;12.65;6.03;;;;;;;4.96;100.00;99476.41;4972000;28;20029;-77
2024/03/11 07:47:29;;;;;;;13.98;6.18;;;;;;;5.17;100.00;99477.13;4968795;28;20497;-77
2024/03/11 07:49:58;;;;;;;9.30;5.20;;;;;;;5.36;100.00;99485.56;4964643;28;20030;-76
2024/03/11 07:52:24;;;;;;;9.73;4.85;;;;;;;5.54;100.00;99489.56;4965339;28;20096;-76
2024/03/11 07:54:50;;;;;;;10.05;4.85;;;;;;;5.70;100.00;99484.78;4965865;28;20121;-77
2024/03/11 07:57:15;;;;;;;7.60;4.40;;;;;;;5.86;100.00;99491.00;5000271;28;20046;-77
2024/03/11 07:59:41;;;;;;;11.52;5.38;;;;;;;6.00;100.00;99492.84;5001694;28;20036;-77
2024/03/11 08:02:08;;;;;;;9.05;4.35;;;;;;;6.16;100.00;99503.75;4996858;28;20041;-76
2024/03/11 08:04:33;;;;;;;9.70;4.38;;;;;;;6.29;100.00;99513.25;4977185;28;20679;-76
2024/03/11 08:06:59;;;;;;;10.13;4.15;;;;;;;6.38;100.00;99509.59;4997056;28;20026;-76
2024/03/11 08:09:27;;;;;;;8.63;4.25;;;;;;;6.47;100.00;99521.63;4976370;28;20033;-76
2024/03/11 08:11:53;;;;;;;7.80;4.13;;;;;;;6.61;100.00;99532.00;4981876;28;20033;-77
2024/03/11 08:14:19;;;;;;;7.95;4.50;;;;;;;6.74;100.00;99535.97;4990892;28;20031;-77
2024/03/11 08:16:44;;;;;;;7.80;4.03;;;;;;;6.85;100.00;99548.56;4980207;28;20039;-76
2024/03/11 08:19:09;;;;;;;7.05;3.85;;;;;;;6.97;100.00;99551.75;4983193;28;20035;-76
2024/03/11 08:21:35;;;;;;;8.13;3.70;;;;;;;7.09;100.00;99548.56;4961162;28;20078;-77
2024/03/11 08:24:00;;;;;;;6.63;3.50;;;;;;;7.21;100.00;99557.25;4989733;28;20049;-77
2024/03/11 08:26:28;;;;;;;8.57;3.90;;;;;;;7.33;100.00;99562.38;4963815;28;20030;-76
2024/03/11 08:28:54;;;;;;;7.65;4.05;;;;;;;7.47;100.00;99566.03;4977176;28;20105;-76
2024/03/11 08:31:19;;;;;;;7.70;3.70;;;;;;;7.57;100.00;99570.59;4978592;28;20584;-77
2024/03/11 08:33:44;;;;;;;8.63;4.28;;;;;;;7.72;100.00;99570.41;4980019;28;20026;-77
2024/03/11 08:36:10;;;;;;;9.80;3.53;;;;;;;7.84;100.00;99570.75;4997177;28;20081;-77
2024/03/11 08:38:36;;;;;;;5.30;3.97;;;;;;;7.98;100.00;99579.13;4960640;28;20044;-76
2024/03/11 08:41:07;;;;;;;6.75;3.47;;;;;;;8.09;100.00;99577.03;4976522;28;20031;-76
2024/03/11 08:43:32;;;;;;;6.10;3.25;;;;;;;8.16;100.00;99583.03;4970168;28;20034;-76
2024/03/11 08:45:58;;;;;;;5.80;3.33;;;;;;;8.20;100.00;99586.81;4998458;28;20030;-76
2024/03/11 08:48:24;;;;;;;7.45;3.75;;;;;;;8.28;100.00;99588.91;4946555;28;20031;-77
2024/03/11 08:50:50;;;;;;;8.30;3.78;;;;;;;8.36;100.00;99595.72;4963462;28;20086;-76
2024/03/11 08:53:15;;;;;;;6.47;3.83;;;;;;;8.46;100.00;99597.50;4976027;28;20026;-76
2024/03/11 08:55:41;;;;;;;5.68;3.88;;;;;;;8.53;100.00;99592.41;4979749;28;20042;-76
2024/03/11 08:58:06;;;;;;;8.23;5.35;;;;;;;8.62;100.00;99600.84;4963242;28;20138;-77
2024/03/11 09:00:36;;;;;;;7.25;4.22;;;;;;;8.75;100.00;99607.53;4995260;28;20561;-76
2024/03/11 09:03:03;;;;;;;8.02;3.53;;;;;;;8.88;100.00;99609.50;4993867;28;20041;-77
2024/03/11 09:05:28;;;;;;;6.07;3.30;;;;;;;8.95;100.00;99608.00;4983245;28;20109;-77
2024/03/11 09:07:56;;;;;;;6.38;3.30;;;;;;;9.06;100.00;99614.16;5013074;28;20552;-77
2024/03/11 09:10:22;;;;;;;8.85;3.55;;;;;;;9.16;100.00;99613.97;4983050;28;20389;-76
2024/03/11 09:12:49;;;;;;;5.10;3.10;;;;;;;9.29;100.00;99614.28;5001360;28;20133;-77
2024/03/11 09:15:17;;;;;;;6.47;2.47;;;;;;;9.39;100.00;99625.16;4979563;28;20030;-76
2024/03/11 09:17:44;;;;;;;8.98;3.17;;;;;;;9.52;100.00;99626.28;4995252;28;20034;-76
2024/03/11 09:20:15;;;;;;;7.55;2.92;;;;;;;9.61;100.00;99639.13;4987779;28;20030;-75
2024/03/11 09:22:46;;;;;;;11.90;2.75;;;;;;;9.70;100.00;99632.84;4968500;28;20065;-77
2024/03/11 09:25:17;;;;;;;5.72;2.45;;;;;;;9.77;100.00;99634.06;4996488;28;20038;-77
2024/03/11 09:27:46;;;;;;;8.07;2.45;;;;;;;9.85;100.00;99649.97;4968894;28;20614;-77
2024/03/11 09:30:12;;;;;;;9.18;2.60;;;;;;;10.01;100.00;99647.69;5004876;28;20060;-77
2024/03/11 09:32:37;;;;;;;6.65;2.25;;;;;;;10.09;100.00;99642.56;4975679;28;20037;-77
2024/03/11 09:35:05;;;;;;;4.88;2.13;;;;;;;10.18;100.00;99647.03;5007654;28;20029;-77
2024/03/11 09:37:31;;;;;;;6.68;2.50;;;;;;;10.29;100.00;99650.44;4969913;28;20056;-77
2024/03/11 09:39:57;;;;;;;7.80;2.67;;;;;;;10.38;100.00;99651.31;4968054;28;20042;-76
2024/03/11 09:42:23;;;;;;;5.85;2.17;;;;;;;10.47;100.00;99646.69;4981610;28;20034;-77
2024/03/11 09:44:49;;;;;;;8.95;2.53;;;;;;;10.56;100.00;99648.66;4970935;28;20529;-76
2024/03/11 09:47:16;;;;;;;9.20;2.28;;;;;;;10.58;100.00;99652.78;4980567;28;20034;-77
2024/03/11 09:49:42;;;;;;;7.00;2.15;;;;;;;10.65;100.00;99658.72;4991007;28;20030;-76
2024/03/11 09:52:09;;;;;;;5.20;2.10;;;;;;;10.71;100.00;99660.22;4969138;28;20398;-76
2024/03/11 09:54:34;;;;;;;9.00;2.10;;;;;;;10.79;100.00;99664.22;4970288;28;20100;-76
2024/03/11 09:56:59;;;;;;;10.55;2.20;;;;;;;10.84;100.00;99669.66;4981985;28;20026;-76
2024/03/11 09:59:25;;;;;;;7.82;2.30;;;;;;;10.92;100.00;99676.38;4970121;28;20473;-76
2024/03/11 10:01:54;;;;;;;10.70;2.45;;;;;;;10.99;100.00;99687.06;4962300;28;20050;-77
2024/03/11 10:04:24;;;;;;;11.98;2.67;;;;;;;11.02;100.00;99683.66;4963407;28;20073;-76
2024/03/11 10:07:00;;;;;;;9.23;2.20;;;;;;;11.10;100.00;99683.69;4978359;28;20027;-77
2024/03/11 10:09:28;;;;;;;9.20;2.30;;;;;;;11.21;100.00;99689.00;4976878;28;20604;-76
2024/03/11 10:12:04;;;;;;;8.50;2.47;;;;;;;11.25;100.00;99695.53;4982114;28;20018;-76
2024/03/11 10:14:34;;;;;;;10.02;2.20;;;;;;;11.34;100.00;99705.59;4961112;28;20030;-76
2024/03/11 10:17:20;;;;;;;6.05;2.28;;;;;;;11.44;100.00;99703.66;4970258;28;20052;-76
2024/03/11 10:19:56;;;;;;;9.55;2.75;;;;;;;11.47;100.00;99719.72;4964280;28;20718;-76
2024/03/11 10:22:31;;;;;;;10.18;2.83;;;;;;;11.57;100.00;99714.69;4978625;28;20113;-77
2024/03/11 10:24:57;;;;;;;8.65;2.63;;;;;;;11.66;100.00;99722.25;4969049;28;20392;-77
2024/03/11 10:27:23;;;;;;;6.40;2.50;;;;;;;11.79;100.00;99718.56;4965953;28;20026;-77
2024/03/11 10:29:54;;;;;;;9.93;2.50;;;;;;;11.87;100.00;99719.75;5014973;28;20034;-77
2024/03/11 10:32:35;;;;;;;7.72;2.45;;;;;;;12.01;100.00;99729.63;4964357;28;20473;-77
2024/03/11 10:35:02;;;;;;;8.98;2.42;;;;;;;12.11;100.00;99734.06;4993939;28;20030;-77
2024/03/11 10:37:28;;;;;;;7.30;1.92;;;;;;;12.22;100.00;99735.41;4958539;28;20031;-77
2024/03/11 10:39:59;;;;;;;6.97;2.67;;;;;;;12.38;100.00;99734.97;4963597;28;20083;-77
2024/03/11 10:42:28;;;;;;;8.07;3.70;;;;;;;12.47;100.00;99746.91;4997550;28;20685;-76
2024/03/11 10:44:57;;;;;;;12.52;3.38;;;;;;;12.49;100.00;99748.25;4986450;28;20030;-77
2024/03/11 10:47:23;;;;;;;9.45;3.50;;;;;;;12.58;100.00;99748.25;4977531;28;20019;-77
2024/03/11 10:49:49;;;;;;;9.98;2.95;;;;;;;12.63;100.00;99750.88;4977810;28;20031;-77
2024/03/11 10:52:20;;;;;;;10.48;3.47;;;;;;;12.62;100.00;99756.75;4961493;28;20026;-76
2024/03/11 10:54:50;;;;;;;11.55;2.88;;;;;;;12.67;100.00;99760.22;4961711;28;20482;-77
2024/03/11 10:57:43;;;;;;;10.77;2.78;;;;;;;12.71;100.00;99772.34;4993798;28;20102;-76
2024/03/11 11:02:44;;;;;;;7.15;3.03;;;;;;;12.71;100.00;99769.56;4982060;28;20035;-77
2024/03/11 11:05:10;;;;;;;11.52;3.38;;;;;;;12.69;100.00;99771.84;4977386;28;20035;-77
2024/03/11 11:07:35;;;;;;;10.52;2.65;;;;;;;12.74;100.00;99766.13;4961723;28;20092;-77
2024/03/11 11:10:01;;;;;;;8.88;3.28;;;;;;;12.80;100.00;99777.13;4994516;28;20088;-76
2024/03/11 11:12:30;;;;;;;8.82;3.30;;;;;;;12.83;100.00;99774.47;4986364;28;20398;-77
2024/03/11 11:15:02;;;;;;;10.30;3.25;;;;;;;12.85;100.00;99779.75;4972203;28;20026;-77
2024/03/11 11:17:28;;;;;;;9.07;3.67;;;;;;;12.89;100.00;99772.34;4966002;28;20031;-77
2024/03/11 11:19:56;;;;;;;13.63;3.63;;;;;;;12.92;100.00;99780.06;4990646;28;20042;-77
2024/03/11 11:22:21;;;;;;;11.40;3.75;;;;;;;12.95;100.00;99768.25;4976016;28;20092;-77
2024/03/11 11:24:46;;;;;;;9.15;3.00;;;;;;;13.06;100.00;99775.13;4945788;28;20039;-76
2024/03/11 11:27:15;;;;;;;9.80;2.63;;;;;;;13.11;100.00;99774.97;4977639;28;20027;-76
2024/03/11 11:29:42;;;;;;;6.68;2.55;;;;;;;13.17;100.00;99782.00;4971225;28;20034;-77
2024/03/11 11:32:11;;;;;;;9.30;3.95;;;;;;;13.32;100.00;99785.50;4952144;28;20035;-76
2024/03/11 11:34:46;;;;;;;10.90;2.72;;;;;;;13.44;100.00;99782.03;4972579;28;20065;-76